sensor_id;sensor_type;location;lat;lon;timestamp;P1;durP1;ratioP1;P2;durP2;ratioP2
12800;SDS011;6464;42.494;27.470;2024-03-08T00:00:45;1.00;;;1.00;;
12800;SDS011;6464;42.494;27.470;2024-03-08T00:03:13;1.10;;;1.10;;
12800;SDS011;6464;42.494;27.470;2024-03-08T00:05:42;1.13;;;1.13;;
12800;SDS011;6464;42.494;27.470;2024-03-08T00:08:11;1.00;;;1.00;;
12800;SDS011;6464;42.494;27.470;2024-03-08T00:10:40;1.00;;;1.00;;
12800;SDS011;6464;42.494;27.470;2024-03-08T00:13:07;1.10;;;1.10;;
12800;SDS011;6464;42.494;27.470;2024-03-08T00:15:35;0.90;;;0.90;;
12800;SDS011;6464;42.494;27.470;2024-03-08T00:18:02;0.63;;;0.63;;
12800;SDS011;6464;42.494;27.470;2024-03-08T00:20:29;0.70;;;0.70;;
12800;SDS011;6464;42.494;27.470;2024-03-08T00:22:56;0.70;;;0.70;;
12800;SDS011;6464;42.494;27.470;2024-03-08T00:25:26;0.47;;;0.47;;
12800;SDS011;6464;42.494;27.470;2024-03-08T00:27:53;0.70;;;0.70;;
12800;SDS011;6464;42.494;27.470;2024-03-08T00:30:34;0.60;;;0.60;;
12800;SDS011;6464;42.494;27.470;2024-03-08T00:33:15;0.60;;;0.60;;
12800;SDS011;6464;42.494;27.470;2024-03-08T00:35:44;0.60;;;0.60;;
12800;SDS011;6464;42.494;27.470;2024-03-08T00:38:13;0.80;;;0.80;;
12800;SDS011;6464;42.494;27.470;2024-03-08T00:40:45;0.63;;;0.63;;
12800;SDS011;6464;42.494;27.470;2024-03-08T00:43:14;0.40;;;0.40;;
12800;SDS011;6464;42.494;27.470;2024-03-08T00:45:42;0.50;;;0.50;;
12800;SDS011;6464;42.494;27.470;2024-03-08T00:48:22;0.50;;;0.50;;
12800;SDS011;6464;42.494;27.470;2024-03-08T00:50:51;0.50;;;0.50;;
12800;SDS011;6464;42.494;27.470;2024-03-08T00:53:31;0.40;;;0.40;;
12800;SDS011;6464;42.494;27.470;2024-03-08T00:56:00;0.60;;;0.60;;
12800;SDS011;6464;42.494;27.470;2024-03-08T00:58:36;0.60;;;0.60;;
12800;SDS011;6464;42.494;27.470;2024-03-08T01:01:12;0.50;;;0.50;;
12800;SDS011;6464;42.494;27.470;2024-03-08T01:03:54;0.53;;;0.53;;
12800;SDS011;6464;42.494;27.470;2024-03-08T01:06:34;0.90;;;0.90;;
12800;SDS011;6464;42.494;27.470;2024-03-08T01:09:15;1.07;;;1.07;;
12800;SDS011;6464;42.494;27.470;2024-03-08T01:11:46;1.40;;;1.40;;
12800;SDS011;6464;42.494;27.470;2024-03-08T01:14:14;1.57;;;1.57;;
12800;SDS011;6464;42.494;27.470;2024-03-08T01:16:44;1.10;;;1.10;;
12800;SDS011;6464;42.494;27.470;2024-03-08T01:19:13;1.10;;;1.10;;
12800;SDS011;6464;42.494;27.470;2024-03-08T01:21:43;0.70;;;0.70;;
12800;SDS011;6464;42.494;27.470;2024-03-08T01:24:12;0.70;;;0.70;;
12800;SDS011;6464;42.494;27.470;2024-03-08T01:26:40;0.70;;;0.70;;
12800;SDS011;6464;42.494;27.470;2024-03-08T01:29:08;0.80;;;0.80;;
12800;SDS011;6464;42.494;27.470;2024-03-08T01:31:35;1.10;;;1.10;;
12800;SDS011;6464;42.494;27.470;2024-03-08T01:34:04;0.70;;;0.70;;
12800;SDS011;6464;42.494;27.470;2024-03-08T01:36:39;0.60;;;0.60;;
12800;SDS011;6464;42.494;27.470;2024-03-08T01:39:08;0.80;;;0.80;;
12800;SDS011;6464;42.494;27.470;2024-03-08T01:41:39;0.80;;;0.80;;
12800;SDS011;6464;42.494;27.470;2024-03-08T01:44:06;0.60;;;0.60;;
12800;SDS011;6464;42.494;27.470;2024-03-08T01:46:38;0.80;;;0.80;;
12800;SDS011;6464;42.494;27.470;2024-03-08T01:49:09;0.67;;;0.67;;
12800;SDS011;6464;42.494;27.470;2024-03-08T01:51:44;0.80;;;0.80;;
12800;SDS011;6464;42.494;27.470;2024-03-08T01:54:11;0.80;;;0.80;;
12800;SDS011;6464;42.494;27.470;2024-03-08T01:56:40;1.27;;;1.27;;
12800;SDS011;6464;42.494;27.470;2024-03-08T01:59:09;1.30;;;1.30;;
12800;SDS011;6464;42.494;27.470;2024-03-08T23:09:10;1.60;;;1.60;;
12800;SDS011;6464;42.494;27.470;2024-03-08T23:11:51;1.73;;;1.73;;
12800;SDS011;6464;42.494;27.470;2024-03-08T23:14:20;1.90;;;1.90;;
12800;SDS011;6464;42.494;27.470;2024-03-08T23:17:01;1.63;;;1.63;;
12800;SDS011;6464;42.494;27.470;2024-03-08T23:22:17;1.80;;;1.80;;
12800;SDS011;6464;42.494;27.470;2024-03-08T23:24:55;1.80;;;1.80;;
12800;SDS011;6464;42.494;27.470;2024-03-08T23:32:34;1.10;;;1.10;;
12800;SDS011;6464;42.494;27.470;2024-03-08T23:46:03;1.80;;;1.80;;
12800;SDS011;6464;42.494;27.470;2024-03-08T23:48:35;1.80;;;1.80;;
12800;SDS011;6464;42.494;27.470;2024-03-08T23:54:03;1.40;;;1.40;;
